Time;durP1;ratioP1;P1;durP2;ratioP2;P2;SDS_P1;SDS_P2;PMS_P1;PMS_P2;Temp;Humidity;BMP_temperature;BMP_pressure;BME280_temperature;BME280_humidity;BME280_pressure;Samples;Min_cycle;Max_cycle;Signal;HPM_P1;HPM_P2
2023/03/01 00:01:13;;;;;;;10.80;6.78;;;;;;;4.74;59.30;101134.75;5059679;28;20040;-72
2023/03/01 00:03:39;;;;;;;8.57;6.20;;;;;;;5.09;58.31;101135.25;5065068;28;20104;-72
2023/03/01 00:06:06;;;;;;;10.98;7.25;;;;;;;4.89;59.25;101122.69;5056090;28;20455;-72
2023/03/01 00:08:33;;;;;;;12.32;7.38;;;;;;;4.61;60.52;101128.69;5059769;28;20510;-72
2023/03/01 00:11:05;;;;;;;11.38;7.50;;;;;;;4.77;59.42;101119.09;5062200;28;20089;-71
2023/03/01 00:13:31;;;;;;;10.98;6.40;;;;;;;4.88;59.41;101118.44;5059590;28;20564;-73
2023/03/01 00:15:57;;;;;;;9.73;6.43;;;;;;;5.03;58.49;101114.13;5059334;28;20024;-73
2023/03/01 00:18:23;;;;;;;10.82;6.72;;;;;;;5.11;58.39;101102.41;5056363;28;20468;-74
2023/03/01 00:20:53;;;;;;;12.50;6.93;;;;;;;5.26;57.79;101092.84;5062978;28;20036;-73
2023/03/01 00:23:19;;;;;;;10.80;6.97;;;;;;;5.26;57.80;101096.25;5065382;28;20040;-72
2023/03/01 00:25:45;;;;;;;10.50;6.53;;;;;;;5.18;58.21;101095.09;5064977;28;20368;-73
2023/03/01 00:28:11;;;;;;;12.05;7.18;;;;;;;4.98;58.87;101089.41;5066581;28;20036;-73
2023/03/01 00:30:37;;;;;;;10.00;6.40;;;;;;;4.76;59.54;101095.94;5061767;28;20112;-73
2023/03/01 00:33:03;;;;;;;10.45;6.57;;;;;;;4.51;60.68;101106.91;5060638;28;20552;-73
2023/03/01 00:35:29;;;;;;;12.52;6.38;;;;;;;4.56;60.40;101104.88;5060373;28;20108;-73
2023/03/01 00:37:57;;;;;;;10.52;6.82;;;;;;;4.83;59.45;101092.06;5065976;28;20409;-73
2023/03/01 00:40:30;;;;;;;9.77;6.15;;;;;;;4.71;60.21;101096.25;5061354;28;20371;-73
2023/03/01 00:42:56;;;;;;;11.73;6.80;;;;;;;4.62;60.34;101099.38;5059968;28;20051;-73
2023/03/01 00:45:22;;;;;;;13.63;7.13;;;;;;;4.49;60.92;101111.31;5064733;28;20031;-73
2023/03/01 00:47:49;;;;;;;13.18;6.88;;;;;;;4.23;61.85;101103.38;5065247;28;20032;-73
2023/03/01 00:50:15;;;;;;;13.15;6.65;;;;;;;3.99;62.82;101095.28;5061715;28;20139;-73
2023/03/01 00:52:41;;;;;;;12.55;7.20;;;;;;;3.79;63.33;101108.44;5065481;28;20046;-72
2023/03/01 00:55:07;;;;;;;11.82;7.75;;;;;;;3.56;64.55;101119.19;5063158;28;20028;-73
2023/03/01 00:57:33;;;;;;;11.70;7.57;;;;;;;3.56;64.26;101119.19;5063697;28;20036;-73
2023/03/01 00:59:59;;;;;;;13.68;6.95;;;;;;;3.62;64.20;101104.25;5064297;28;20028;-73
2023/03/01 01:02:26;;;;;;;13.55;7.65;;;;;;;3.75;63.67;101075.22;5064606;28;20028;-72
2023/03/01 01:04:52;;;;;;;11.10;7.38;;;;;;;3.76;63.83;101069.97;5062466;28;20117;-73
2023/03/01 01:07:19;;;;;;;10.55;6.45;;;;;;;3.81;63.60;101065.38;5052731;28;20121;-73
2023/03/01 01:09:46;;;;;;;11.98;7.50;;;;;;;3.71;63.66;101064.25;5061060;28;20024;-72
2023/03/01 01:12:12;;;;;;;10.23;6.53;;;;;;;3.58;64.26;101058.94;5062471;28;20483;-72
2023/03/01 01:14:38;;;;;;;11.43;7.03;;;;;;;3.53;64.65;101052.38;5059592;28;20333;-73
2023/03/01 01:17:04;;;;;;;12.23;7.15;;;;;;;3.41;64.65;101061.59;5059766;28;20035;-73
2023/03/01 01:19:30;;;;;;;12.07;7.05;;;;;;;3.29;65.28;101057.97;5059689;28;20041;-72
2023/03/01 01:21:56;;;;;;;11.93;7.00;;;;;;;3.15;66.39;101046.75;5046249;28;20043;-73
2023/03/01 01:24:22;;;;;;;13.80;8.05;;;;;;;3.08;66.84;101053.16;5057482;28;20033;-73
2023/03/01 01:26:48;;;;;;;13.07;7.05;;;;;;;2.97;66.71;101062.28;5060735;28;21149;-73
2023/03/01 01:29:14;;;;;;;13.18;8.05;;;;;;;2.98;66.96;101048.50;5062005;28;20035;-72
2023/03/01 01:31:42;;;;;;;10.90;7.68;;;;;;;3.08;67.05;101048.00;5061868;28;20388;-73
2023/03/01 01:34:14;;;;;;;11.95;8.07;;;;;;;2.98;67.03;101057.97;5041966;28;20028;-72
2023/03/01 01:36:40;;;;;;;14.82;7.97;;;;;;;2.83;67.53;101054.47;5047546;28;20067;-73
2023/03/01 01:39:07;;;;;;;15.25;7.80;;;;;;;2.72;67.97;101051.63;5064760;28;20447;-72
2023/03/01 01:41:33;;;;;;;14.02;8.55;;;;;;;2.60;68.52;101037.66;5061640;28;20043;-72
2023/03/01 01:44:13;;;;;;;14.43;8.40;;;;;;;2.52;69.95;101028.66;5057977;28;20032;-72
2023/03/01 01:47:08;;;;;;;18.00;7.85;;;;;;;2.93;69.19;101024.72;5062280;28;20032;-72
2023/03/01 01:49:39;;;;;;;13.60;7.30;;;;;;;3.50;65.70;101008.75;5065167;28;20048;-72
2023/03/01 01:52:18;;;;;;;13.48;7.65;;;;;;;3.85;65.01;100999.84;5063821;28;20093;-73
2023/03/01 01:55:23;;;;;;;12.55;7.38;;;;;;;3.84;65.16;101007.66;5064295;28;20040;-72
2023/03/01 01:57:53;;;;;;;18.02;7.25;;;;;;;4.13;63.64;100996.50;5061027;28;20136;-72
2023/03/01 02:00:24;;;;;;;14.15;7.43;;;;;;;4.58;62.22;100990.31;5065320;28;20483;-72
2023/03/01 02:03:00;;;;;;;13.45;6.70;;;;;;;4.81;61.34;100988.88;5066014;28;20032;-72
2023/03/01 02:05:47;;;;;;;12.00;6.97;;;;;;;4.37;62.44;100976.13;5064489;28;20044;-72
2023/03/01 02:08:15;;;;;;;13.23;7.07;;;;;;;4.20;63.67;100982.31;5067756;28;20040;-72
2023/03/01 02:10:42;;;;;;;12.55;6.80;;;;;;;4.08;63.72;100982.19;5050884;28;20036;-72
2023/03/01 02:13:08;;;;;;;12.82;7.40;;;;;;;3.90;64.37;100973.78;5052303;28;20104;-72
2023/03/01 02:15:36;;;;;;;10.82;7.00;;;;;;;3.92;64.67;100965.03;5068549;28;20099;-72
2023/03/01 02:18:03;;;;;;;12.85;7.40;;;;;;;3.84;65.00;100950.94;5050443;28;20043;-72
2023/03/01 02:20:40;;;;;;;10.43;6.80;;;;;;;3.73;65.06;100941.28;5044772;28;20463;-72
2023/03/01 02:23:08;;;;;;;16.48;7.68;;;;;;;3.58;65.92;100958.44;5064399;28;20376;-72
2023/03/01 02:25:51;;;;;;;9.38;6.43;;;;;;;3.50;66.42;100952.91;5064449;28;20050;-72
2023/03/01 02:28:17;;;;;;;12.10;7.05;;;;;;;3.42;66.63;100947.34;5063145;28;20040;-72
2023/03/01 02:33:35;;;;;;;12.13;7.40;;;;;;;3.23;66.99;100952.72;5059404;28;20587;-72
2023/03/01 02:36:06;;;;;;;11.15;7.22;;;;;;;3.18;67.23;100946.19;5050250;28;20052;-72
2023/03/01 02:38:32;;;;;;;19.85;7.85;;;;;;;3.13;67.62;100941.28;5064283;28;20431;-72
2023/03/01 02:40:59;;;;;;;12.43;7.45;;;;;;;3.05;67.74;100929.75;5063153;28;20403;-72
2023/03/01 02:43:30;;;;;;;13.85;8.05;;;;;;;2.96;68.36;100936.22;5069082;28;20348;-72
2023/03/01 02:45:59;;;;;;;11.00;7.40;;;;;;;2.91;68.60;100933.91;5055106;28;20052;-72
2023/03/01 02:48:25;;;;;;;14.57;7.78;;;;;;;3.20;67.92;100937.44;5066919;28;20043;-72
2023/03/01 02:51:13;;;;;;;11.73;7.13;;;;;;;3.33;67.39;100935.81;5065401;28;20025;-71
2023/03/01 02:53:50;;;;;;;13.15;6.85;;;;;;;3.43;66.56;100920.69;5062660;28;20139;-72
2023/03/01 02:56:16;;;;;;;11.98;6.95;;;;;;;3.61;66.87;100917.06;5058968;28;20438;-72
2023/03/01 02:58:51;;;;;;;11.05;7.18;;;;;;;3.53;66.35;100926.97;5060562;28;20353;-72
2023/03/01 03:01:20;;;;;;;12.00;7.68;;;;;;;3.25;67.62;100932.03;5063324;28;20047;-72
2023/03/01 03:03:46;;;;;;;12.10;8.02;;;;;;;3.15;67.99;100925.75;5026427;28;20116;-72
2023/03/01 03:06:12;;;;;;;12.30;7.45;;;;;;;3.20;67.99;100918.59;5060204;28;20033;-72
2023/03/01 03:08:38;;;;;;;13.00;6.95;;;;;;;3.20;68.32;100918.59;5064363;28;20032;-72
2023/03/01 03:11:04;;;;;;;11.07;7.03;;;;;;;3.52;67.24;100914.16;5065077;28;20078;-73
2023/03/01 03:13:29;;;;;;;13.35;7.03;;;;;;;4.09;65.32;100907.34;5062032;28;20131;-72
2023/03/01 03:15:56;;;;;;;10.63;6.35;;;;;;;3.95;65.11;100923.63;5065764;28;20075;-72
2023/03/01 03:18:22;;;;;;;13.18;6.82;;;;;;;3.69;66.02;100906.31;5066313;28;20035;-72
2023/03/01 03:20:52;;;;;;;13.45;6.93;;;;;;;3.45;67.55;100894.81;5062712;28;20020;-72
2023/03/01 03:23:19;;;;;;;15.55;7.38;;;;;;;3.29;68.48;100894.91;5054247;28;20035;-73
2023/03/01 03:25:48;;;;;;;12.05;6.68;;;;;;;4.13;65.22;100895.09;5064921;28;20119;-73
2023/03/01 03:28:13;;;;;;;11.55;6.45;;;;;;;4.54;63.91;100892.53;5049605;28;20033;-72
2023/03/01 03:30:40;;;;;;;12.23;6.43;;;;;;;4.86;62.74;100890.50;5066175;28;20044;-73
2023/03/01 03:33:07;;;;;;;10.73;7.25;;;;;;;4.79;62.93;100887.47;5061033;28;20055;-73
2023/03/01 03:35:44;;;;;;;11.70;6.03;;;;;;;4.52;64.01;100881.47;5046579;28;20044;-72
2023/03/01 03:38:16;;;;;;;9.63;6.45;;;;;;;4.31;65.02;100884.44;5064812;28;20060;-72
2023/03/01 03:40:47;;;;;;;12.10;6.50;;;;;;;4.11;65.24;100884.88;5066880;28;20036;-72
2023/03/01 03:43:15;;;;;;;12.95;7.18;;;;;;;4.04;65.59;100883.56;5064085;28;20032;-72
2023/03/01 03:45:43;;;;;;;10.70;6.38;;;;;;;4.09;65.71;100878.97;5058562;28;20048;-72
2023/03/01 03:48:09;;;;;;;11.10;6.35;;;;;;;4.25;65.27;100889.97;5064562;28;20032;-72
2023/03/01 03:50:36;;;;;;;9.23;6.00;;;;;;;4.73;63.05;100882.69;5063965;28;20044;-73
2023/03/01 03:53:05;;;;;;;10.65;5.53;;;;;;;5.14;61.85;100869.72;5048541;28;20166;-72
2023/03/01 03:55:33;;;;;;;8.18;5.18;;;;;;;5.44;60.68;100877.22;5067284;28;20032;-72
2023/03/01 03:58:02;;;;;;;10.63;5.90;;;;;;;5.51;60.10;100878.47;5064811;28;20465;-72
2023/03/01 04:00:28;;;;;;;7.45;5.15;;;;;;;5.45;60.43;100871.13;5060336;28;20031;-73
2023/03/01 04:02:56;;;;;;;10.68;6.57;;;;;;;5.18;61.04;100885.88;5043130;28;20087;-73
2023/03/01 04:05:22;;;;;;;11.18;6.43;;;;;;;5.09;61.01;100887.28;5038753;28;20040;-72
2023/03/01 04:07:47;;;;;;;9.07;5.90;;;;;;;5.25;60.71;100862.09;5057360;28;20060;-73
2023/03/01 04:10:16;;;;;;;10.40;5.20;;;;;;;5.64;59.15;100852.63;5063956;28;20056;-72
2023/03/01 04:12:45;;;;;;;11.45;6.13;;;;;;;5.82;58.83;100850.53;5066348;28;20440;-72
2023/03/01 04:15:15;;;;;;;11.70;5.50;;;;;;;5.92;57.56;100859.34;5065448;28;20036;-72
2023/03/01 04:17:42;;;;;;;10.00;5.35;;;;;;;6.07;56.99;100860.06;5061638;28;20046;-72
2023/03/01 04:20:17;;;;;;;10.60;5.88;;;;;;;6.19;56.43;100862.59;5066618;28;20086;-73
2023/03/01 04:22:43;;;;;;;9.02;5.45;;;;;;;6.19;56.44;100846.25;5057522;28;20094;-73
2023/03/01 04:25:09;;;;;;;10.00;5.72;;;;;;;6.16;56.37;100859.41;5060840;28;20028;-73
2023/03/01 04:27:35;;;;;;;9.30;5.55;;;;;;;6.02;57.66;100865.56;5063169;28;20033;-72
2023/03/01 04:30:04;;;;;;;9.18;5.60;;;;;;;5.76;58.89;100859.53;5061278;28;20086;-73
2023/03/01 04:32:29;;;;;;;12.05;6.35;;;;;;;5.50;60.12;100861.31;5059964;28;20250;-73
2023/03/01 04:34:56;;;;;;;12.02;6.75;;;;;;;5.27;60.81;100860.22;5059997;28;20397;-72
2023/03/01 04:37:21;;;;;;;12.35;6.45;;;;;;;5.14;61.67;100861.16;5062274;28;20074;-72
2023/03/01 04:39:47;;;;;;;13.63;7.97;;;;;;;4.99;62.05;100868.13;5057986;28;20033;-73
2023/03/01 04:42:16;;;;;;;13.68;7.43;;;;;;;4.89;62.59;100859.31;5064134;28;20040;-72
2023/03/01 04:44:43;;;;;;;11.95;7.03;;;;;;;5.14;60.47;100848.25;5062493;28;20427;-73
2023/03/01 04:47:09;;;;;;;11.13;6.45;;;;;;;5.82;58.30;100855.69;5063140;28;20028;-72
2023/03/01 04:49:35;;;;;;;10.27;6.07;;;;;;;5.95;57.76;100848.81;5063006;28;20051;-72
2023/03/01 04:52:02;;;;;;;10.50;5.72;;;;;;;6.11;57.47;100833.88;5063740;28;20124;-73
2023/03/01 04:54:29;;;;;;;10.95;6.93;;;;;;;5.84;58.72;100848.66;5065788;28;20397;-73
2023/03/01 04:56:55;;;;;;;12.32;6.35;;;;;;;5.48;60.12;100852.81;5063715;28;20049;-73
2023/03/01 04:59:25;;;;;;;12.68;6.65;;;;;;;5.24;61.32;100844.94;5065279;28;20132;-73
2023/03/01 05:01:57;;;;;;;11.65;6.45;;;;;;;5.03;62.63;100855.84;5060667;28;20032;-72
2023/03/01 05:04:24;;;;;;;15.48;7.45;;;;;;;4.94;62.84;100852.94;5063909;28;20032;-73
2023/03/01 05:06:50;;;;;;;15.65;7.97;;;;;;;4.84;63.64;100851.88;5048171;28;20408;-73
2023/03/01 05:09:17;;;;;;;9.63;5.93;;;;;;;4.96;62.18;100851.09;5062179;28;20119;-73
2023/03/01 05:11:42;;;;;;;10.45;6.32;;;;;;;5.56;60.15;100826.47;5064664;28;20029;-73
2023/03/01 05:14:09;;;;;;;9.65;5.72;;;;;;;5.97;58.65;100842.59;5065945;28;20028;-72
2023/03/01 05:16:36;;;;;;;8.85;5.07;;;;;;;6.20;57.19;100830.63;5058622;28;20040;-71
2023/03/01 05:19:15;;;;;;;10.88;5.28;;;;;;;6.38;56.68;100828.50;5061822;28;20033;-72
2023/03/01 05:24:26;;;;;;;10.13;5.38;;;;;;;6.32;56.98;100819.41;5062335;28;20048;-71
2023/03/01 05:26:53;;;;;;;8.82;4.88;;;;;;;6.40;56.56;100836.16;5062262;28;20037;-72
2023/03/01 05:29:24;;;;;;;9.23;5.80;;;;;;;6.38;56.84;100817.34;5062132;28;20060;-71
2023/03/01 05:32:01;;;;;;;8.30;4.35;;;;;;;6.36;56.83;100820.03;5065227;28;20141;-72
2023/03/01 05:34:30;;;;;;;8.25;5.10;;;;;;;6.40;56.55;100829.22;5060950;28;20040;-71
2023/03/01 05:36:57;;;;;;;8.40;5.40;;;;;;;6.40;56.86;100821.47;5062451;28;20025;-71
2023/03/01 05:39:26;;;;;;;9.95;5.43;;;;;;;6.37;56.49;100815.69;5041259;28;20041;-71
2023/03/01 05:41:54;;;;;;;12.13;5.18;;;;;;;6.30;56.66;100815.28;5064017;28;20036;-72
2023/03/01 05:44:20;;;;;;;6.88;4.85;;;;;;;6.29;56.64;100818.81;5059095;28;20036;-71
2023/03/01 05:46:46;;;;;;;9.82;5.53;;;;;;;6.31;56.23;100814.34;5045011;28;20071;-71
2023/03/01 05:49:13;;;;;;;8.15;4.35;;;;;;;6.25;56.79;100817.38;5063783;28;20454;-72
2023/03/01 05:51:41;;;;;;;7.35;4.85;;;;;;;6.19;57.34;100810.84;5058806;28;20036;-71
2023/03/01 05:54:08;;;;;;;6.88;4.70;;;;;;;6.20;56.90;100827.22;5060943;28;20392;-72
2023/03/01 05:56:35;;;;;;;8.75;5.10;;;;;;;6.25;55.63;100812.19;5059830;28;20028;-71
2023/03/01 05:59:03;;;;;;;8.38;4.70;;;;;;;6.30;55.68;100816.09;5062078;28;20055;-72
2023/03/01 06:01:29;;;;;;;9.27;5.10;;;;;;;6.30;55.67;100820.47;5057423;28;20028;-71
2023/03/01 06:03:56;;;;;;;10.00;4.60;;;;;;;6.28;55.51;100784.34;5060668;28;20432;-71
2023/03/01 06:06:23;;;;;;;11.48;4.82;;;;;;;6.36;55.49;100809.69;5060614;28;20043;-71
2023/03/01 06:08:49;;;;;;;8.20;4.60;;;;;;;6.37;55.96;100832.03;5063658;28;20041;-72
2023/03/01 06:11:15;;;;;;;8.68;4.85;;;;;;;6.27;56.82;100829.25;5063789;28;20028;-71
2023/03/01 06:13:44;;;;;;;8.50;4.53;;;;;;;6.26;57.05;100808.66;5061281;28;20036;-72
2023/03/01 06:16:11;;;;;;;6.60;4.03;;;;;;;6.24;57.08;100815.72;5055900;28;20028;-73
2023/03/01 06:18:38;;;;;;;4.78;4.13;;;;;;;6.32;57.44;100810.81;5058546;28;20029;-72
2023/03/01 06:21:06;;;;;;;9.57;5.13;;;;;;;6.30;57.13;100810.94;5061383;28;20037;-71
2023/03/01 06:23:32;;;;;;;6.38;4.35;;;;;;;6.25;57.32;100797.50;5063583;28;20024;-73
2023/03/01 06:25:58;;;;;;;7.28;4.45;;;;;;;6.29;56.89;100809.28;5057228;28;20164;-71
2023/03/01 06:28:24;;;;;;;7.88;4.47;;;;;;;6.33;56.53;100802.13;5060225;28;20448;-72
2023/03/01 06:30:50;;;;;;;8.93;4.47;;;;;;;6.39;56.50;100811.22;5060465;28;20025;-72
2023/03/01 06:33:15;;;;;;;7.50;4.63;;;;;;;6.50;55.89;100803.53;5062356;28;20510;-72
2023/03/01 06:35:41;;;;;;;8.70;4.22;;;;;;;6.58;55.71;100814.16;5054304;28;20114;-72
2023/03/01 06:38:07;;;;;;;10.32;4.20;;;;;;;6.62;55.58;100812.97;5061309;28;20380;-71
2023/03/01 06:40:35;;;;;;;10.07;4.93;;;;;;;6.55;55.40;100811.78;5061072;28;20024;-72
2023/03/01 06:43:00;;;;;;;10.70;4.13;;;;;;;6.47;56.11;100824.44;5048949;28;20028;-72
2023/03/01 06:45:26;;;;;;;8.68;4.35;;;;;;;6.38;57.03;100822.50;5059772;28;20039;-72
2023/03/01 06:47:51;;;;;;;11.23;5.10;;;;;;;6.31;57.26;100827.28;5058502;28;20412;-72
2023/03/01 06:50:18;;;;;;;7.43;4.60;;;;;;;6.40;57.05;100834.41;5067423;28;20119;-73
2023/03/01 06:52:44;;;;;;;14.75;4.70;;;;;;;6.61;56.09;100808.75;5052441;28;20162;-72
2023/03/01 06:55:11;;;;;;;8.27;4.35;;;;;;;6.68;55.41;100815.13;5060412;28;20041;-72
2023/03/01 06:57:37;;;;;;;11.48;4.78;;;;;;;6.63;55.21;100801.69;5063523;28;20028;-72
2023/03/01 07:00:06;;;;;;;11.55;5.15;;;;;;;6.53;56.34;100808.47;5063894;28;20029;-72
2023/03/01 07:02:32;;;;;;;9.13;4.65;;;;;;;6.43;57.29;100821.25;5061049;28;20033;-72
2023/03/01 07:04:57;;;;;;;11.30;5.35;;;;;;;6.39;57.32;100819.00;5063451;28;20032;-72
2023/03/01 07:07:23;;;;;;;6.97;4.13;;;;;;;6.56;56.37;100818.63;5060070;28;20523;-72
2023/03/01 07:09:49;;;;;;;7.55;4.68;;;;;;;6.59;55.44;100810.63;5062793;28;20036;-72
2023/03/01 07:12:15;;;;;;;12.25;4.28;;;;;;;6.53;55.27;100803.31;5063802;28;20472;-72
2023/03/01 07:14:40;;;;;;;9.25;4.85;;;;;;;6.45;55.40;100803.03;5060532;28;20337;-72
2023/03/01 07:17:06;;;;;;;7.63;4.57;;;;;;;6.49;55.59;100815.63;5061536;28;20122;-72
2023/03/01 07:19:32;;;;;;;10.85;4.10;;;;;;;6.51;56.18;100820.72;5062510;28;20036;-72
2023/03/01 07:21:57;;;;;;;4.90;3.58;;;;;;;6.58;56.51;100814.16;5060257;28;20029;-72
2023/03/01 07:24:23;;;;;;;10.18;4.22;;;;;;;6.71;55.77;100808.91;5062728;28;20038;-72
2023/03/01 07:26:51;;;;;;;7.03;4.22;;;;;;;6.75;56.38;100805.97;5059181;28;20028;-71
2023/03/01 07:29:17;;;;;;;6.55;3.78;;;;;;;6.76;56.41;100832.69;5060351;28;20033;-72
2023/03/01 07:31:43;;;;;;;5.70;4.00;;;;;;;6.93;54.74;100814.16;5063566;28;20076;-72
2023/03/01 07:34:10;;;;;;;4.18;2.88;;;;;;;6.95;54.61;100800.16;5062293;28;20044;-72
2023/03/01 07:36:36;;;;;;;8.43;3.65;;;;;;;7.11;54.45;100797.25;5062792;28;20460;-72
2023/03/01 07:39:02;;;;;;;10.80;3.58;;;;;;;7.15;54.13;100797.84;5060630;28;20032;-72
2023/03/01 07:41:28;;;;;;;7.65;3.35;;;;;;;7.09;54.69;100803.50;5060148;28;20025;-72
2023/03/01 07:43:54;;;;;;;9.38;3.50;;;;;;;7.17;55.15;100806.34;5063030;28;20086;-72
2023/03/01 07:46:19;;;;;;;9.00;4.05;;;;;;;7.10;55.74;100805.97;5063274;28;20036;-72
2023/03/01 07:48:45;;;;;;;10.52;4.07;;;;;;;7.01;54.86;100811.03;5064399;28;20112;-72
2023/03/01 07:51:11;;;;;;;6.28;3.65;;;;;;;7.05;54.82;100791.72;5064532;28;20044;-72
2023/03/01 07:53:36;;;;;;;7.85;3.42;;;;;;;7.12;54.57;100792.88;5059800;28;20047;-72
2023/03/01 07:56:11;;;;;;;9.95;3.47;;;;;;;7.18;54.40;100787.25;5068728;28;20051;-72
2023/03/01 07:58:39;;;;;;;6.70;2.90;;;;;;;7.23;53.75;100772.19;5066267;28;20031;-72
2023/03/01 08:01:06;;;;;;;6.32;2.92;;;;;;;7.36;53.19;100775.50;5051071;28;20029;-72
2023/03/01 08:03:32;;;;;;;4.68;2.92;;;;;;;7.36;53.86;100780.69;5067987;28;20044;-72
2023/03/01 08:06:02;;;;;;;5.88;2.90;;;;;;;7.31;54.01;100773.25;5058936;28;20029;-72
2023/03/01 08:08:28;;;;;;;5.72;2.42;;;;;;;7.48;53.90;100765.97;5067509;28;20036;-72
2023/03/01 08:10:57;;;;;;;10.23;3.47;;;;;;;7.54;54.06;100774.13;5063716;28;20090;-71
2023/03/01 08:13:22;;;;;;;10.00;3.40;;;;;;;7.53;53.74;100774.25;5066503;28;20032;-72
2023/03/01 08:15:49;;;;;;;6.90;3.10;;;;;;;7.58;53.64;100780.69;5066405;28;20542;-71
2023/03/01 08:18:15;;;;;;;6.95;3.28;;;;;;;7.43;53.52;100774.09;5061014;28;20047;-71
2023/03/01 08:20:40;;;;;;;12.48;3.38;;;;;;;7.50;53.15;100780.47;5064481;28;20032;-71
2023/03/01 08:23:06;;;;;;;8.57;2.75;;;;;;;7.52;52.68;100781.19;5063252;28;20028;-72
2023/03/01 08:25:31;;;;;;;9.88;3.28;;;;;;;7.43;53.02;100757.72;5065263;28;20036;-72
2023/03/01 08:27:57;;;;;;;9.68;3.70;;;;;;;7.38;53.37;100765.84;5062202;28;20089;-72
2023/03/01 08:30:23;;;;;;;6.88;3.25;;;;;;;7.36;53.10;100770.31;5059714;28;20480;-72
2023/03/01 08:32:49;;;;;;;9.77;3.33;;;;;;;7.30;53.23;100760.41;5062717;28;20396;-73
2023/03/01 08:35:15;;;;;;;9.70;3.30;;;;;;;7.28;53.43;100736.38;5061873;28;20032;-72
2023/03/01 08:37:40;;;;;;;12.75;3.38;;;;;;;7.32;53.78;100733.44;5062869;28;20032;-72
2023/03/01 08:40:07;;;;;;;6.05;3.60;;;;;;;7.53;53.20;100723.22;5059834;28;20032;-71
2023/03/01 08:42:32;;;;;;;11.77;3.60;;;;;;;7.53;53.45;100710.25;5062575;28;20043;-71
2023/03/01 08:44:58;;;;;;;7.70;2.95;;;;;;;7.75;53.09;100730.13;5063829;28;20036;-72
2023/03/01 08:47:23;;;;;;;12.82;3.30;;;;;;;7.66;53.12;100717.88;5055937;28;20051;-72
2023/03/01 08:49:50;;;;;;;7.00;3.08;;;;;;;7.76;53.60;100724.00;5065314;28;20033;-72
2023/03/01 08:52:16;;;;;;;7.07;2.80;;;;;;;7.79;53.24;100709.97;5062107;28;20044;-72
2023/03/01 08:54:42;;;;;;;8.30;2.70;;;;;;;7.68;53.24;100697.81;5057023;28;20506;-71
2023/03/01 08:57:09;;;;;;;9.68;2.97;;;;;;;7.75;53.35;100711.97;5061877;28;20134;-71
2023/03/01 08:59:37;;;;;;;5.50;2.22;;;;;;;8.00;53.07;100708.28;5059785;28;20141;-72
2023/03/01 09:02:04;;;;;;;7.15;3.35;;;;;;;8.55;52.22;100702.03;5053606;28;20515;-72
2023/03/01 09:04:29;;;;;;;9.20;2.78;;;;;;;8.53;51.71;100682.34;5054457;28;20037;-71
2023/03/01 09:06:55;;;;;;;7.97;3.58;;;;;;;7.89;52.99;100722.09;5060056;28;20034;-71
2023/03/01 09:09:20;;;;;;;9.30;4.10;;;;;;;7.66;54.09;100708.31;5065246;28;20384;-72
2023/03/01 09:11:46;;;;;;;9.20;4.25;;;;;;;7.69;54.29;100706.44;5059562;28;20037;-72
2023/03/01 09:14:13;;;;;;;8.02;3.75;;;;;;;7.60;53.92;100706.19;5057565;28;20052;-72
2023/03/01 09:16:39;;;;;;;8.25;3.65;;;;;;;7.59;53.71;100717.50;5055674;28;20029;-71
2023/03/01 09:19:05;;;;;;;5.50;2.78;;;;;;;7.39;54.65;100713.06;5057541;28;20131;-72
2023/03/01 09:21:31;;;;;;;9.15;3.65;;;;;;;7.52;54.44;100716.38;5056086;28;20033;-72
2023/03/01 09:23:58;;;;;;;10.73;3.17;;;;;;;7.76;53.91;100730.94;5056878;28;20028;-72
2023/03/01 09:26:24;;;;;;;7.07;3.70;;;;;;;7.72;54.09;100729.53;5056602;28;20506;-71
2023/03/01 09:28:51;;;;;;;11.65;3.95;;;;;;;7.75;53.41;100722.34;5055578;28;20032;-72
2023/03/01 09:31:19;;;;;;;8.63;3.58;;;;;;;7.78;53.57;100703.13;5056166;28;20067;-71
2023/03/01 09:33:49;;;;;;;6.45;3.38;;;;;;;7.86;53.42;100687.78;5056168;28;20041;-72
2023/03/01 09:36:18;;;;;;;8.43;2.47;;;;;;;7.82;53.78;100713.13;5062558;28;20029;-72
2023/03/01 09:38:45;;;;;;;5.28;2.65;;;;;;;7.78;53.80;100688.38;5059594;28;20021;-72
2023/03/01 09:41:26;;;;;;;8.38;3.53;;;;;;;7.64;54.05;100688.63;5052415;28;20139;-72
2023/03/01 09:43:57;;;;;;;8.43;3.13;;;;;;;7.71;53.94;100678.59;5054648;28;20036;-72
2023/03/01 09:46:25;;;;;;;10.00;2.75;;;;;;;7.69;54.07;100709.03;5057022;28;20486;-71
2023/03/01 09:49:06;;;;;;;12.30;3.50;;;;;;;7.66;53.93;100686.75;5063096;28;20028;-70
2023/03/01 09:51:34;;;;;;;6.90;3.13;;;;;;;7.61;54.13;100730.38;5062537;28;20031;-72
2023/03/01 09:54:02;;;;;;;11.02;3.15;;;;;;;7.61;54.29;100707.03;5058754;28;20025;-71
2023/03/01 09:56:41;;;;;;;7.13;2.80;;;;;;;7.93;53.54;100694.97;5058207;28;20434;-71
2023/03/01 09:59:29;;;;;;;11.88;2.70;;;;;;;8.20;52.82;100707.47;5051649;28;20557;-71
2023/03/01 10:02:28;;;;;;;8.43;2.28;;;;;;;8.11;53.36;100700.44;5064333;28;20107;-71
2023/03/01 10:05:12;;;;;;;13.52;3.00;;;;;;;8.07;53.35;100693.84;5064220;28;20025;-71
2023/03/01 10:07:47;;;;;;;4.80;2.75;;;;;;;8.07;53.85;100680.88;5061727;28;20034;-71
2023/03/01 10:10:33;;;;;;;4.85;2.63;;;;;;;8.21;53.39;100690.97;5062230;28;20036;-71
2023/03/01 10:13:03;;;;;;;10.77;3.30;;;;;;;8.11;53.53;100713.41;5047238;28;20028;-71
2023/03/01 10:15:44;;;;;;;12.07;2.72;;;;;;;8.13;53.24;100719.31;5066718;28;20083;-71
2023/03/01 10:18:19;;;;;;;10.07;2.72;;;;;;;8.01;53.66;100696.94;5061753;28;20028;-71
2023/03/01 10:20:56;;;;;;;17.30;3.70;;;;;;;7.91;53.91;100693.44;5064309;28;20035;-71
2023/03/01 10:23:24;;;;;;;24.58;4.55;;;;;;;7.66;54.41;100717.88;5064255;28;20041;-71
2023/03/01 10:25:58;;;;;;;5.85;3.00;;;;;;;7.63;54.78;100661.88;5065196;28;20036;-70
2023/03/01 10:28:35;;;;;;;7.40;3.83;;;;;;;7.71;54.62;100686.38;5059482;28;20127;-72
2023/03/01 10:31:01;;;;;;;6.95;3.40;;;;;;;7.57;55.11;100705.63;5068731;28;20064;-71
2023/03/01 10:33:30;;;;;;;11.48;4.35;;;;;;;7.78;54.61;100703.94;5070040;28;20135;-69
2023/03/01 10:35:56;;;;;;;14.32;3.47;;;;;;;7.83;54.39;100675.88;5067973;28;20040;-71
2023/03/01 10:38:21;;;;;;;4.43;3.42;;;;;;;7.80;54.45;100711.59;5064433;28;20476;-71
2023/03/01 10:40:53;;;;;;;16.13;3.72;;;;;;;7.76;54.52;100705.84;5068799;28;20028;-71
2023/03/01 10:43:20;;;;;;;8.32;3.67;;;;;;;7.76;54.46;100681.66;5065906;28;20392;-71
2023/03/01 10:45:45;;;;;;;8.90;2.70;;;;;;;7.70;54.64;100700.31;5063532;28;20435;-71
2023/03/01 10:48:28;;;;;;;7.93;3.20;;;;;;;7.93;54.21;100726.09;5056311;28;20033;-71
2023/03/01 10:50:59;;;;;;;7.20;2.95;;;;;;;7.97;54.24;100724.91;5065730;28;20131;-71
2023/03/01 10:53:34;;;;;;;13.23;3.72;;;;;;;7.87;54.90;100707.59;5065828;28;20051;-71
2023/03/01 10:56:04;;;;;;;7.65;3.33;;;;;;;7.76;55.40;100728.34;5066096;28;20036;-71
2023/03/01 10:58:31;;;;;;;14.30;3.17;;;;;;;7.80;55.30;100728.00;5063372;28;20120;-72
2023/03/01 11:01:01;;;;;;;4.20;2.25;;;;;;;8.11;54.50;100736.75;5060245;28;20032;-72
2023/03/01 11:03:32;;;;;;;5.45;2.53;;;;;;;8.06;54.73;100749.28;5058122;28;20037;-72
2023/03/01 11:06:03;;;;;;;8.15;3.50;;;;;;;7.86;55.42;100743.09;5060750;28;20032;-71
2023/03/01 11:08:42;;;;;;;4.53;2.95;;;;;;;7.98;54.81;100746.50;5063051;28;20505;-73
2023/03/01 11:11:32;;;;;;;5.78;2.83;;;;;;;7.99;54.96;100774.09;5049628;28;20438;-71
2023/03/01 11:13:59;;;;;;;6.82;3.60;;;;;;;7.89;55.00;100749.81;5054157;28;20029;-72
2023/03/01 11:16:28;;;;;;;4.57;2.13;;;;;;;7.85;55.33;100753.56;5053969;28;20044;-72
2023/03/01 11:18:59;;;;;;;3.20;2.22;;;;;;;7.94;55.18;100751.09;5054149;28;20036;-71
2023/03/01 11:21:28;;;;;;;8.32;2.60;;;;;;;7.87;55.30;100752.50;5055107;28;20423;-71
2023/03/01 11:23:53;;;;;;;8.63;2.40;;;;;;;7.86;55.57;100752.63;5053967;28;20079;-71
2023/03/01 11:26:20;;;;;;;4.97;2.50;;;;;;;7.77;55.87;100750.75;5053687;28;20492;-72
2023/03/01 11:28:53;;;;;;;9.23;2.45;;;;;;;7.71;56.24;100746.88;5053917;28;20058;-72
2023/03/01 11:31:20;;;;;;;6.85;2.28;;;;;;;7.83;55.91;100737.31;5057808;28;20480;-71
2023/03/01 11:34:10;;;;;;;3.15;2.00;;;;;;;7.92;55.52;100741.78;5055664;28;20091;-71
2023/03/01 11:36:54;;;;;;;6.25;2.05;;;;;;;7.81;55.88;100728.81;5055238;28;20542;-72
2023/03/01 11:39:52;;;;;;;3.78;1.73;;;;;;;7.81;56.15;100739.19;5053440;28;20037;-71
2023/03/01 11:42:24;;;;;;;3.80;1.80;;;;;;;8.03;55.84;100759.94;5053351;28;20040;-72